createdAt,value
2019-02-11T00:01:36.822Z,6.00
2019-02-11T00:11:38.093Z,5.80
2019-02-11T00:21:39.349Z,5.50
2019-02-11T00:31:40.613Z,5.20
2019-02-11T00:41:41.870Z,5.10
2019-02-11T00:51:43.127Z,5.00
2019-02-11T01:01:44.376Z,5.00
2019-02-11T01:11:45.635Z,5.20
2019-02-11T01:21:47.640Z,5.10
2019-02-11T01:31:49.658Z,4.90
2019-02-11T01:41:50.905Z,4.90
2019-02-11T01:51:52.253Z,5.00
2019-02-11T02:01:54.257Z,4.90
2019-02-11T02:11:56.296Z,4.80
2019-02-11T02:21:57.568Z,4.80
2019-02-11T02:31:58.833Z,4.80
2019-02-11T02:42:00.090Z,4.60
2019-02-11T02:52:01.361Z,4.70
2019-02-11T03:02:02.646Z,4.70
2019-02-11T03:12:03.928Z,4.70
2019-02-11T03:22:05.188Z,4.50
2019-02-11T03:32:06.463Z,4.40
2019-02-11T03:42:07.722Z,4.30
2019-02-11T03:52:08.964Z,4.10
2019-02-11T04:02:10.207Z,4.00
2019-02-11T04:12:11.480Z,3.90
2019-02-11T04:22:12.743Z,3.80
2019-02-11T04:32:14.012Z,3.80
2019-02-11T04:42:16.045Z,3.60
2019-02-11T04:52:17.304Z,3.60
2019-02-11T05:02:18.563Z,3.60
2019-02-11T05:12:19.809Z,3.70
2019-02-11T05:22:21.828Z,3.50
2019-02-11T05:32:23.069Z,3.60
2019-02-11T06:02:39.456Z,3.10
2019-02-11T06:12:40.722Z,3.10
2019-02-11T06:22:41.981Z,3.00
2019-02-11T06:32:44.006Z,3.00
2019-02-11T06:42:46.040Z,2.90
2019-02-11T06:52:47.309Z,2.90
2019-02-11T07:02:49.332Z,2.80
2019-02-11T07:12:51.364Z,3.00
2019-02-11T07:22:52.624Z,3.00
2019-02-11T10:14:48.947Z,7.50
2019-02-11T10:24:50.214Z,7.90
2019-02-11T10:34:51.476Z,8.20
2019-02-11T10:44:52.741Z,9.10
2019-02-11T10:54:54.001Z,10.10
2019-02-11T11:04:55.256Z,9.50
2019-02-11T11:14:57.280Z,9.80
2019-02-11T11:24:58.545Z,9.80
2019-02-11T11:34:59.781Z,9.60
2019-02-11T11:45:01.026Z,10.50
2019-02-11T11:55:02.282Z,9.50
2019-02-11T12:05:03.684Z,8.70
2019-02-11T12:15:04.952Z,9.10
2019-02-11T12:25:06.187Z,8.90
2019-02-11T12:35:07.482Z,9.00
2019-02-11T12:45:08.769Z,8.60
2019-02-11T12:55:10.070Z,9.00
2019-02-11T13:05:11.358Z,9.20
2019-02-11T13:15:31.190Z,9.50
2019-02-11T13:25:13.979Z,9.10
2019-02-11T13:35:15.283Z,8.90
2019-02-11T13:45:18.076Z,9.00
2019-02-11T13:55:19.360Z,8.70
2019-02-11T14:05:20.618Z,8.30
2019-02-11T14:15:21.924Z,7.90
2019-02-11T14:35:30.456Z,7.50
2019-02-11T14:45:31.746Z,7.40
2019-02-11T15:25:55.651Z,7.00
2019-02-11T15:35:56.913Z,6.90
2019-02-11T15:45:59.281Z,6.90
2019-02-11T15:56:07.693Z,6.60
2019-02-11T16:06:10.237Z,6.50
2019-02-11T16:16:03.214Z,6.50
2019-02-11T16:26:04.466Z,6.50
2019-02-11T16:36:06.770Z,6.20
2019-02-11T16:46:11.999Z,6.00
2019-02-11T22:56:06.857Z,5.10
2019-02-11T23:06:08.123Z,5.00
2019-02-11T23:16:09.381Z,4.70
2019-02-11T23:26:11.416Z,4.50
2019-02-11T23:36:12.685Z,4.40
2019-02-11T23:46:13.940Z,4.30
2019-02-11T23:56:15.215Z,4.40
